sensor_id;sensor_type;location;lat;lon;timestamp;pressure;altitude;pressure_sealevel;temperature;humidity
550;BME280;20066;48.764;9.176;2024-01-30T00:01:17;99524.56;;;7.23;58.14
550;BME280;20066;48.764;9.176;2024-01-30T00:03:45;99518.75;;;7.54;57.43
550;BME280;20066;48.764;9.176;2024-01-30T00:06:14;99529.19;;;7.80;56.45
550;BME280;20066;48.764;9.176;2024-01-30T00:08:45;99522.72;;;7.81;56.05
550;BME280;20066;48.764;9.176;2024-01-30T00:11:16;99522.75;;;7.48;56.07
550;BME280;20066;48.764;9.176;2024-01-30T00:13:44;99522.66;;;7.56;55.70
550;BME280;20066;48.764;9.176;2024-01-30T00:16:20;99522.31;;;7.04;56.54
550;BME280;20066;48.764;9.176;2024-01-30T00:18:51;99531.72;;;7.31;56.85
550;BME280;20066;48.764;9.176;2024-01-30T00:21:21;99523.69;;;7.31;56.89
550;BME280;20066;48.764;9.176;2024-01-30T00:23:49;99524.97;;;7.46;56.32
550;BME280;20066;48.764;9.176;2024-01-30T00:26:18;99521.69;;;7.73;55.55
550;BME280;20066;48.764;9.176;2024-01-30T00:28:47;99524.56;;;7.23;56.52
550;BME280;20066;48.764;9.176;2024-01-30T00:31:15;99524.31;;;6.86;58.99
550;BME280;20066;48.764;9.176;2024-01-30T00:33:44;99524.19;;;7.45;57.13
550;BME280;20066;48.764;9.176;2024-01-30T00:36:13;99527.75;;;7.70;56.13
550;BME280;20066;48.764;9.176;2024-01-30T00:38:43;99528.53;;;7.70;55.87
550;BME280;20066;48.764;9.176;2024-01-30T00:41:11;99526.78;;;7.54;56.22
550;BME280;20066;48.764;9.176;2024-01-30T00:43:40;99527.06;;;7.73;55.85
550;BME280;20066;48.764;9.176;2024-01-30T00:46:09;99520.03;;;7.81;55.72
550;BME280;20066;48.764;9.176;2024-01-30T00:48:37;99527.19;;;7.76;55.78
550;BME280;20066;48.764;9.176;2024-01-30T00:51:05;99530.50;;;7.41;56.60
550;BME280;20066;48.764;9.176;2024-01-30T00:53:34;99523.50;;;7.48;56.49
550;BME280;20066;48.764;9.176;2024-01-30T00:56:04;99531.03;;;7.34;57.00
550;BME280;20066;48.764;9.176;2024-01-30T00:58:32;99526.91;;;7.57;56.45
550;BME280;20066;48.764;9.176;2024-01-30T01:01:01;99529.03;;;7.31;56.62
550;BME280;20066;48.764;9.176;2024-01-30T01:03:29;99530.34;;;7.46;56.88
550;BME280;20066;48.764;9.176;2024-01-30T01:05:58;99528.41;;;7.13;57.56
550;BME280;20066;48.764;9.176;2024-01-30T01:08:26;99527.47;;;6.59;59.57
550;BME280;20066;48.764;9.176;2024-01-30T01:10:56;99526.25;;;6.86;59.45
550;BME280;20066;48.764;9.176;2024-01-30T01:13:26;99532.00;;;7.50;57.47
550;BME280;20066;48.764;9.176;2024-01-30T01:15:54;99535.31;;;7.14;58.27
550;BME280;20066;48.764;9.176;2024-01-30T01:18:23;99537.31;;;7.38;57.54
550;BME280;20066;48.764;9.176;2024-01-30T01:20:52;99538.19;;;7.30;57.82
550;BME280;20066;48.764;9.176;2024-01-30T01:23:20;99536.31;;;7.43;57.33
550;BME280;20066;48.764;9.176;2024-01-30T01:25:48;99532.75;;;7.38;56.93
550;BME280;20066;48.764;9.176;2024-01-30T01:28:16;99533.25;;;7.53;57.05
550;BME280;20066;48.764;9.176;2024-01-30T01:30:48;99528.28;;;7.63;56.54
550;BME280;20066;48.764;9.176;2024-01-30T01:33:16;99528.72;;;7.65;56.69
550;BME280;20066;48.764;9.176;2024-01-30T01:35:45;99530.03;;;7.59;56.76
550;BME280;20066;48.764;9.176;2024-01-30T01:38:13;99527.59;;;7.13;57.24
550;BME280;20066;48.764;9.176;2024-01-30T01:40:42;99523.81;;;5.96;61.71
550;BME280;20066;48.764;9.176;2024-01-30T01:43:11;99530.13;;;6.30;62.63
550;BME280;20066;48.764;9.176;2024-01-30T01:45:40;99535.31;;;7.14;59.43
550;BME280;20066;48.764;9.176;2024-01-30T01:48:12;99536.31;;;7.43;58.29
550;BME280;20066;48.764;9.176;2024-01-30T01:50:42;99529.66;;;7.49;57.89
550;BME280;20066;48.764;9.176;2024-01-30T01:53:13;99534.16;;;6.74;60.04
550;BME280;20066;48.764;9.176;2024-01-30T01:55:42;99527.00;;;6.86;60.86
550;BME280;20066;48.764;9.176;2024-01-30T01:58:12;99525.66;;;7.01;59.13
550;BME280;20066;48.764;9.176;2024-01-30T02:00:42;99518.59;;;6.08;63.34
550;BME280;20066;48.764;9.176;2024-01-30T02:03:16;99513.91;;;5.97;64.42
550;BME280;20066;48.764;9.176;2024-01-30T02:05:49;99518.69;;;7.09;60.52
550;BME280;20066;48.764;9.176;2024-01-30T02:08:18;99523.88;;;7.26;59.64
550;BME280;20066;48.764;9.176;2024-01-30T02:10:47;99523.09;;;7.05;59.40
550;BME280;20066;48.764;9.176;2024-01-30T02:13:17;99521.94;;;6.93;59.48
550;BME280;20066;48.764;9.176;2024-01-30T02:15:49;99528.38;;;6.34;61.52
550;BME280;20066;48.764;9.176;2024-01-30T02:18:20;99524.31;;;6.28;62.18
550;BME280;20066;48.764;9.176;2024-01-30T02:20:54;99526.69;;;6.88;60.21
550;BME280;20066;48.764;9.176;2024-01-30T02:23:25;99534.19;;;6.65;60.36
550;BME280;20066;48.764;9.176;2024-01-30T02:25:55;99530.47;;;6.87;59.79
550;BME280;20066;48.764;9.176;2024-01-30T02:28:24;99537.84;;;6.60;60.14
550;BME280;20066;48.764;9.176;2024-01-30T02:30:53;99541.75;;;5.78;62.81
550;BME280;20066;48.764;9.176;2024-01-30T02:33:21;99535.63;;;5.78;64.60
550;BME280;20066;48.764;9.176;2024-01-30T02:35:50;99536.38;;;5.96;64.22
550;BME280;20066;48.764;9.176;2024-01-30T02:38:20;99541.34;;;6.82;60.93
550;BME280;20066;48.764;9.176;2024-01-30T02:40:50;99522.91;;;6.89;60.27
550;BME280;20066;48.764;9.176;2024-01-30T02:43:20;99530.28;;;5.87;63.01
550;BME280;20066;48.764;9.176;2024-01-30T02:45:50;99519.09;;;5.38;66.22
550;BME280;20066;48.764;9.176;2024-01-30T02:48:19;99521.13;;;6.05;64.42
550;BME280;20066;48.764;9.176;2024-01-30T02:50:49;99522.03;;;6.76;61.86
550;BME280;20066;48.764;9.176;2024-01-30T02:53:17;99524.09;;;7.00;60.39
550;BME280;20066;48.764;9.176;2024-01-30T02:55:46;99523.00;;;7.01;60.06
550;BME280;20066;48.764;9.176;2024-01-30T02:58:16;99522.91;;;6.89;60.14
550;BME280;20066;48.764;9.176;2024-01-30T03:00:45;99523.69;;;6.89;59.63
550;BME280;20066;48.764;9.176;2024-01-30T03:03:14;99520.97;;;6.98;59.39
550;BME280;20066;48.764;9.176;2024-01-30T03:05:42;99522.84;;;6.97;59.62
550;BME280;20066;48.764;9.176;2024-01-30T03:08:12;99518.22;;;7.07;58.77
550;BME280;20066;48.764;9.176;2024-01-30T03:10:41;99517.84;;;7.17;58.56
550;BME280;20066;48.764;9.176;2024-01-30T03:13:12;99521.72;;;7.19;58.45
550;BME280;20066;48.764;9.176;2024-01-30T03:15:42;99519.53;;;7.21;58.04
550;BME280;20066;48.764;9.176;2024-01-30T03:18:12;99515.53;;;7.27;57.71
550;BME280;20066;48.764;9.176;2024-01-30T03:20:40;99521.19;;;7.26;57.99
550;BME280;20066;48.764;9.176;2024-01-30T03:23:10;99526.94;;;7.36;57.32
550;BME280;20066;48.764;9.176;2024-01-30T03:25:46;99523.63;;;7.19;57.62
550;BME280;20066;48.764;9.176;2024-01-30T03:28:15;99530.34;;;7.04;58.39
550;BME280;20066;48.764;9.176;2024-01-30T03:30:50;99525.63;;;6.51;59.76
550;BME280;20066;48.764;9.176;2024-01-30T03:33:20;99527.16;;;6.60;60.30
550;BME280;20066;48.764;9.176;2024-01-30T03:35:48;99524.94;;;7.13;58.55
550;BME280;20066;48.764;9.176;2024-01-30T03:38:16;99522.63;;;7.03;58.84
550;BME280;20066;48.764;9.176;2024-01-30T03:40:45;99517.28;;;7.03;59.21
550;BME280;20066;48.764;9.176;2024-01-30T03:43:15;99523.19;;;7.17;58.80
550;BME280;20066;48.764;9.176;2024-01-30T03:45:44;99519.78;;;7.08;58.98
550;BME280;20066;48.764;9.176;2024-01-30T03:48:15;99530.88;;;6.68;60.10
550;BME280;20066;48.764;9.176;2024-01-30T03:50:43;99523.88;;;7.05;59.04
550;BME280;20066;48.764;9.176;2024-01-30T03:53:12;99527.88;;;6.99;59.06
550;BME280;20066;48.764;9.176;2024-01-30T03:55:42;99523.25;;;6.79;59.52
550;BME280;20066;48.764;9.176;2024-01-30T03:58:10;99522.59;;;7.11;58.80
550;BME280;20066;48.764;9.176;2024-01-30T04:00:39;99522.06;;;6.97;59.01
550;BME280;20066;48.764;9.176;2024-01-30T04:03:08;99530.56;;;6.99;58.53
550;BME280;20066;48.764;9.176;2024-01-30T04:05:38;99531.44;;;6.53;60.20
550;BME280;20066;48.764;9.176;2024-01-30T04:08:07;99532.22;;;6.53;60.23
550;BME280;20066;48.764;9.176;2024-01-30T04:10:36;99531.94;;;6.76;59.91
550;BME280;20066;48.764;9.176;2024-01-30T04:13:05;99526.56;;;6.55;60.44
550;BME280;20066;48.764;9.176;2024-01-30T04:15:37;99529.69;;;6.57;59.72
550;BME280;20066;48.764;9.176;2024-01-30T04:18:06;99524.09;;;6.03;62.20
550;BME280;20066;48.764;9.176;2024-01-30T04:20:34;99521.44;;;5.22;65.00
550;BME280;20066;48.764;9.176;2024-01-30T04:23:04;99521.91;;;4.98;66.65
550;BME280;20066;48.764;9.176;2024-01-30T04:25:32;99520.44;;;5.70;64.31
550;BME280;20066;48.764;9.176;2024-01-30T04:28:01;99521.38;;;6.20;62.64
550;BME280;20066;48.764;9.176;2024-01-30T04:30:29;99521.16;;;5.96;62.02
550;BME280;20066;48.764;9.176;2024-01-30T04:32:57;99520.19;;;5.45;63.64
550;BME280;20066;48.764;9.176;2024-01-30T04:35:25;99519.44;;;6.30;61.71
550;BME280;20066;48.764;9.176;2024-01-30T04:37:53;99511.38;;;6.68;60.13
550;BME280;20066;48.764;9.176;2024-01-30T04:40:23;99520.28;;;6.51;60.09
550;BME280;20066;48.764;9.176;2024-01-30T04:42:51;99520.19;;;6.68;59.74
550;BME280;20066;48.764;9.176;2024-01-30T04:45:19;99518.94;;;6.66;59.63
550;BME280;20066;48.764;9.176;2024-01-30T04:47:48;99523.50;;;6.65;59.40
550;BME280;20066;48.764;9.176;2024-01-30T04:50:17;99522.63;;;6.23;60.43
550;BME280;20066;48.764;9.176;2024-01-30T04:52:47;99521.94;;;6.35;61.31
550;BME280;20066;48.764;9.176;2024-01-30T04:55:15;99523.38;;;6.91;58.98
550;BME280;20066;48.764;9.176;2024-01-30T04:57:50;99522.81;;;6.77;58.95
550;BME280;20066;48.764;9.176;2024-01-30T05:00:19;99528.47;;;6.84;58.63
550;BME280;20066;48.764;9.176;2024-01-30T05:02:47;99527.00;;;6.86;58.71
550;BME280;20066;48.764;9.176;2024-01-30T05:05:17;99538.13;;;6.68;58.87
550;BME280;20066;48.764;9.176;2024-01-30T05:08:02;99538.47;;;6.57;60.10
550;BME280;20066;48.764;9.176;2024-01-30T05:10:30;99538.53;;;6.78;58.98
550;BME280;20066;48.764;9.176;2024-01-30T05:13:00;99530.94;;;6.80;58.97
550;BME280;20066;48.764;9.176;2024-01-30T05:15:29;99543.41;;;6.85;58.84
550;BME280;20066;48.764;9.176;2024-01-30T05:17:57;99536.00;;;6.52;59.63
550;BME280;20066;48.764;9.176;2024-01-30T05:20:26;99532.34;;;6.86;59.08
550;BME280;20066;48.764;9.176;2024-01-30T05:22:55;99538.94;;;5.83;62.32
550;BME280;20066;48.764;9.176;2024-01-30T05:25:24;99531.78;;;6.13;60.83
550;BME280;20066;48.764;9.176;2024-01-30T05:27:55;99540.63;;;6.64;59.69
550;BME280;20066;48.764;9.176;2024-01-30T05:30:26;99534.44;;;6.81;59.21
550;BME280;20066;48.764;9.176;2024-01-30T05:32:54;99532.97;;;6.24;61.00
550;BME280;20066;48.764;9.176;2024-01-30T05:35:22;99532.00;;;6.67;59.78
550;BME280;20066;48.764;9.176;2024-01-30T05:37:50;99539.16;;;6.16;61.57
550;BME280;20066;48.764;9.176;2024-01-30T05:40:18;99543.19;;;5.84;62.42
550;BME280;20066;48.764;9.176;2024-01-30T05:42:47;99551.44;;;6.47;60.86
550;BME280;20066;48.764;9.176;2024-01-30T05:45:16;99550.34;;;6.77;59.55
550;BME280;20066;48.764;9.176;2024-01-30T05:47:45;99542.59;;;6.84;58.96
550;BME280;20066;48.764;9.176;2024-01-30T05:52:43;99548.50;;;6.69;59.63
550;BME280;20066;48.764;9.176;2024-01-30T05:55:11;99544.06;;;6.73;59.34
550;BME280;20066;48.764;9.176;2024-01-30T05:57:40;99553.41;;;6.88;59.13
550;BME280;20066;48.764;9.176;2024-01-30T06:00:08;99544.38;;;6.72;59.30
550;BME280;20066;48.764;9.176;2024-01-30T06:02:37;99553.00;;;6.77;59.15
550;BME280;20066;48.764;9.176;2024-01-30T06:05:08;99552.53;;;6.84;59.19
550;BME280;20066;48.764;9.176;2024-01-30T06:07:36;99555.41;;;6.70;59.46
550;BME280;20066;48.764;9.176;2024-01-30T06:10:06;99548.63;;;6.05;61.21
550;BME280;20066;48.764;9.176;2024-01-30T06:12:35;99548.25;;;5.69;63.41
550;BME280;20066;48.764;9.176;2024-01-30T06:15:04;99553.16;;;6.05;61.72
550;BME280;20066;48.764;9.176;2024-01-30T06:17:33;99542.66;;;6.00;61.56
550;BME280;20066;48.764;9.176;2024-01-30T06:20:01;99545.03;;;5.93;61.22
550;BME280;20066;48.764;9.176;2024-01-30T06:22:30;99541.78;;;6.25;60.87
550;BME280;20066;48.764;9.176;2024-01-30T06:24:59;99547.09;;;5.78;62.08
550;BME280;20066;48.764;9.176;2024-01-30T06:27:27;99548.81;;;6.38;60.83
550;BME280;20066;48.764;9.176;2024-01-30T06:29:55;99552.94;;;6.56;59.96
550;BME280;20066;48.764;9.176;2024-01-30T06:32:23;99553.78;;;6.10;61.09
550;BME280;20066;48.764;9.176;2024-01-30T06:34:52;99552.19;;;5.54;62.66
550;BME280;20066;48.764;9.176;2024-01-30T06:37:20;99553.69;;;5.81;62.56
550;BME280;20066;48.764;9.176;2024-01-30T06:39:50;99555.09;;;6.34;60.34
550;BME280;20066;48.764;9.176;2024-01-30T06:42:19;99550.00;;;6.49;60.20
550;BME280;20066;48.764;9.176;2024-01-30T06:44:47;99551.50;;;5.74;61.63
550;BME280;20066;48.764;9.176;2024-01-30T06:47:15;99549.72;;;5.96;62.35
550;BME280;20066;48.764;9.176;2024-01-30T06:49:43;99545.75;;;6.48;60.03
550;BME280;20066;48.764;9.176;2024-01-30T06:52:11;99551.81;;;6.66;59.51
550;BME280;20066;48.764;9.176;2024-01-30T06:54:39;99555.53;;;6.06;61.36
550;BME280;20066;48.764;9.176;2024-01-30T06:57:09;99554.03;;;6.26;60.98
550;BME280;20066;48.764;9.176;2024-01-30T06:59:38;99554.94;;;6.68;59.47
550;BME280;20066;48.764;9.176;2024-01-30T07:02:09;99558.97;;;6.83;58.83
550;BME280;20066;48.764;9.176;2024-01-30T07:04:38;99557.09;;;6.75;59.18
550;BME280;20066;48.764;9.176;2024-01-30T07:07:12;99558.94;;;6.24;60.82
550;BME280;20066;48.764;9.176;2024-01-30T07:09:41;99556.88;;;5.49;62.78
550;BME280;20066;48.764;9.176;2024-01-30T07:12:11;99567.84;;;5.73;62.82
550;BME280;20066;48.764;9.176;2024-01-30T07:14:38;99564.47;;;6.48;60.25
550;BME280;20066;48.764;9.176;2024-01-30T07:17:06;99571.75;;;5.84;61.70
550;BME280;20066;48.764;9.176;2024-01-30T07:19:34;99571.75;;;5.93;62.34
550;BME280;20066;48.764;9.176;2024-01-30T07:22:02;99574.19;;;6.53;60.00
550;BME280;20066;48.764;9.176;2024-01-30T07:24:30;99570.16;;;6.76;59.73
550;BME280;20066;48.764;9.176;2024-01-30T07:26:58;99569.56;;;7.00;58.62
550;BME280;20066;48.764;9.176;2024-01-30T07:29:28;99563.03;;;7.10;58.45
550;BME280;20066;48.764;9.176;2024-01-30T07:31:55;99568.03;;;6.23;60.80
550;BME280;20066;48.764;9.176;2024-01-30T07:34:23;99565.97;;;6.29;61.89
550;BME280;20066;48.764;9.176;2024-01-30T07:36:51;99569.88;;;6.98;59.45
550;BME280;20066;48.764;9.176;2024-01-30T07:39:21;99567.47;;;7.06;58.83
550;BME280;20066;48.764;9.176;2024-01-30T07:41:49;99565.50;;;6.94;59.39
550;BME280;20066;48.764;9.176;2024-01-30T07:44:17;99560.91;;;7.24;58.79
550;BME280;20066;48.764;9.176;2024-01-30T07:46:46;99566.69;;;7.05;59.04
550;BME280;20066;48.764;9.176;2024-01-30T07:49:14;99575.44;;;7.56;58.19
550;BME280;20066;48.764;9.176;2024-01-30T07:51:43;99568.56;;;7.67;57.02
550;BME280;20066;48.764;9.176;2024-01-30T07:54:12;99567.84;;;7.91;56.40
550;BME280;20066;48.764;9.176;2024-01-30T07:56:40;99577.94;;;7.73;55.80
550;BME280;20066;48.764;9.176;2024-01-30T07:59:09;99576.09;;;7.53;56.06
550;BME280;20066;48.764;9.176;2024-01-30T08:01:37;99583.38;;;7.64;56.27
550;BME280;20066;48.764;9.176;2024-01-30T08:04:07;99584.72;;;8.03;55.20
550;BME280;20066;48.764;9.176;2024-01-30T08:06:35;99580.59;;;8.06;55.56
550;BME280;20066;48.764;9.176;2024-01-30T08:09:04;99571.53;;;7.86;55.71
550;BME280;20066;48.764;9.176;2024-01-30T08:11:33;99570.34;;;8.08;54.76
550;BME280;20066;48.764;9.176;2024-01-30T08:14:01;99581.53;;;8.34;54.65
550;BME280;20066;48.764;9.176;2024-01-30T08:16:29;99584.81;;;8.64;54.04
550;BME280;20066;48.764;9.176;2024-01-30T08:18:57;99581.13;;;8.81;53.00
550;BME280;20066;48.764;9.176;2024-01-30T08:21:27;99580.28;;;8.20;54.52
550;BME280;20066;48.764;9.176;2024-01-30T08:23:55;99570.59;;;7.28;56.43
550;BME280;20066;48.764;9.176;2024-01-30T08:26:22;99575.75;;;7.87;55.93
550;BME280;20066;48.764;9.176;2024-01-30T08:28:50;99577.75;;;7.57;56.07
550;BME280;20066;48.764;9.176;2024-01-30T08:31:20;99569.75;;;8.02;55.55
550;BME280;20066;48.764;9.176;2024-01-30T08:33:48;99570.50;;;8.24;54.46
550;BME280;20066;48.764;9.176;2024-01-30T08:36:17;99576.31;;;8.50;53.87
550;BME280;20066;48.764;9.176;2024-01-30T08:38:46;99575.78;;;7.99;54.99
550;BME280;20066;48.764;9.176;2024-01-30T08:41:14;99576.97;;;8.35;53.99
550;BME280;20066;48.764;9.176;2024-01-30T08:43:42;99580.75;;;8.34;54.29
550;BME280;20066;48.764;9.176;2024-01-30T08:46:11;99572.53;;;8.75;53.48
550;BME280;20066;48.764;9.176;2024-01-30T08:48:39;99573.50;;;8.59;53.97
550;BME280;20066;48.764;9.176;2024-01-30T08:51:07;99580.00;;;8.45;54.24
550;BME280;20066;48.764;9.176;2024-01-30T08:53:35;99580.47;;;8.47;54.19
550;BME280;20066;48.764;9.176;2024-01-30T08:56:06;99580.78;;;9.07;53.04
550;BME280;20066;48.764;9.176;2024-01-30T08:58:35;99581.31;;;9.24;51.93
550;BME280;20066;48.764;9.176;2024-01-30T09:01:03;99580.34;;;9.73;51.17
550;BME280;20066;48.764;9.176;2024-01-30T09:03:32;99574.72;;;10.53;48.95
550;BME280;20066;48.764;9.176;2024-01-30T09:06:00;99587.94;;;11.28;47.81
550;BME280;20066;48.764;9.176;2024-01-30T09:08:28;99584.63;;;11.53;46.63
550;BME280;20066;48.764;9.176;2024-01-30T09:10:56;99580.78;;;12.35;44.99
550;BME280;20066;48.764;9.176;2024-01-30T09:13:25;99592.97;;;14.31;42.21
550;BME280;20066;48.764;9.176;2024-01-30T09:15:53;99590.22;;;13.24;42.48
550;BME280;20066;48.764;9.176;2024-01-30T09:18:22;99602.94;;;14.64;41.04
550;BME280;20066;48.764;9.176;2024-01-30T09:20:50;99603.66;;;16.09;37.69
550;BME280;20066;48.764;9.176;2024-01-30T09:23:18;99609.91;;;16.95;35.87
550;BME280;20066;48.764;9.176;2024-01-30T09:25:46;99601.41;;;17.07;34.86
550;BME280;20066;48.764;9.176;2024-01-30T09:28:14;99605.94;;;15.90;36.52
550;BME280;20066;48.764;9.176;2024-01-30T09:30:43;99600.13;;;15.84;37.47
550;BME280;20066;48.764;9.176;2024-01-30T09:33:11;99608.72;;;14.18;40.80
550;BME280;20066;48.764;9.176;2024-01-30T09:35:39;99606.94;;;15.42;38.37
550;BME280;20066;48.764;9.176;2024-01-30T09:38:07;99598.84;;;15.57;38.23
550;BME280;20066;48.764;9.176;2024-01-30T09:40:35;99603.34;;;14.66;39.50
550;BME280;20066;48.764;9.176;2024-01-30T09:43:03;99598.06;;;14.36;40.41
550;BME280;20066;48.764;9.176;2024-01-30T09:45:32;99609.97;;;13.01;42.13
550;BME280;20066;48.764;9.176;2024-01-30T09:48:03;99597.91;;;12.23;44.53
550;BME280;20066;48.764;9.176;2024-01-30T09:50:32;99606.94;;;14.00;41.52
550;BME280;20066;48.764;9.176;2024-01-30T09:53:03;99601.38;;;14.19;41.08
550;BME280;20066;48.764;9.176;2024-01-30T09:55:31;99610.59;;;13.47;42.31
550;BME280;20066;48.764;9.176;2024-01-30T09:58:03;99608.59;;;14.96;39.83
550;BME280;20066;48.764;9.176;2024-01-30T10:00:31;99608.94;;;15.60;38.04
550;BME280;20066;48.764;9.176;2024-01-30T10:03:02;99604.72;;;14.97;39.14
550;BME280;20066;48.764;9.176;2024-01-30T10:05:31;99616.44;;;16.09;37.24
550;BME280;20066;48.764;9.176;2024-01-30T10:08:00;99610.78;;;15.38;38.69
550;BME280;20066;48.764;9.176;2024-01-30T10:10:29;99606.31;;;14.10;40.78
550;BME280;20066;48.764;9.176;2024-01-30T10:12:57;99610.81;;;14.83;39.95
550;BME280;20066;48.764;9.176;2024-01-30T10:15:28;99610.50;;;13.70;41.77
550;BME280;20066;48.764;9.176;2024-01-30T10:17:56;99602.75;;;14.94;40.19
550;BME280;20066;48.764;9.176;2024-01-30T10:20:26;99613.38;;;15.17;39.01
550;BME280;20066;48.764;9.176;2024-01-30T10:22:54;99610.19;;;15.08;39.30
550;BME280;20066;48.764;9.176;2024-01-30T10:25:23;99609.28;;;15.48;38.84
550;BME280;20066;48.764;9.176;2024-01-30T10:27:52;99614.06;;;15.83;37.96
550;BME280;20066;48.764;9.176;2024-01-30T10:30:21;99604.44;;;15.99;38.02
550;BME280;20066;48.764;9.176;2024-01-30T10:32:49;99606.66;;;14.96;39.21
550;BME280;20066;48.764;9.176;2024-01-30T10:35:18;99603.41;;;14.29;40.93
550;BME280;20066;48.764;9.176;2024-01-30T10:37:48;99597.72;;;14.41;40.80
550;BME280;20066;48.764;9.176;2024-01-30T10:40:16;99593.56;;;14.54;40.81
550;BME280;20066;48.764;9.176;2024-01-30T10:42:45;99592.84;;;15.16;39.46
550;BME280;20066;48.764;9.176;2024-01-30T10:45:14;99588.34;;;15.37;38.96
550;BME280;20066;48.764;9.176;2024-01-30T10:47:46;99591.56;;;15.75;38.47
550;BME280;20066;48.764;9.176;2024-01-30T10:50:16;99591.97;;;15.88;38.38
550;BME280;20066;48.764;9.176;2024-01-30T10:52:44;99578.50;;;14.60;40.25
550;BME280;20066;48.764;9.176;2024-01-30T10:55:15;99579.44;;;14.27;40.92
550;BME280;20066;48.764;9.176;2024-01-30T10:57:44;99579.31;;;14.17;41.74
550;BME280;20066;48.764;9.176;2024-01-30T11:00:14;99575.03;;;14.12;41.75
550;BME280;20066;48.764;9.176;2024-01-30T11:02:44;99567.81;;;14.75;40.85
550;BME280;20066;48.764;9.176;2024-01-30T11:05:12;99577.34;;;15.16;40.10
550;BME280;20066;48.764;9.176;2024-01-30T11:07:42;99579.25;;;14.10;41.51
550;BME280;20066;48.764;9.176;2024-01-30T11:10:11;99584.28;;;13.74;43.07
550;BME280;20066;48.764;9.176;2024-01-30T11:12:46;99572.47;;;14.78;40.68
550;BME280;20066;48.764;9.176;2024-01-30T11:15:15;99571.13;;;14.06;41.90
550;BME280;20066;48.764;9.176;2024-01-30T11:17:45;99576.25;;;15.21;39.83
550;BME280;20066;48.764;9.176;2024-01-30T11:20:15;99572.22;;;15.00;40.30
550;BME280;20066;48.764;9.176;2024-01-30T11:22:44;99569.16;;;15.05;40.56
550;BME280;20066;48.764;9.176;2024-01-30T11:25:14;99569.41;;;14.86;40.86
550;BME280;20066;48.764;9.176;2024-01-30T11:27:44;99568.97;;;15.42;39.45
550;BME280;20066;48.764;9.176;2024-01-30T11:30:21;99567.13;;;14.92;39.90
550;BME280;20066;48.764;9.176;2024-01-30T11:33:03;99562.41;;;15.51;39.77
550;BME280;20066;48.764;9.176;2024-01-30T11:35:35;99564.41;;;14.88;40.42
550;BME280;20066;48.764;9.176;2024-01-30T11:38:05;99566.34;;;15.64;39.67
550;BME280;20066;48.764;9.176;2024-01-30T11:40:36;99558.50;;;14.72;40.86
550;BME280;20066;48.764;9.176;2024-01-30T11:43:07;99560.13;;;15.53;39.99
550;BME280;20066;48.764;9.176;2024-01-30T11:45:36;99561.34;;;15.80;39.57
550;BME280;20066;48.764;9.176;2024-01-30T11:48:05;99551.22;;;15.63;40.09
550;BME280;20066;48.764;9.176;2024-01-30T11:50:34;99553.03;;;15.30;41.03
550;BME280;20066;48.764;9.176;2024-01-30T11:53:18;99550.25;;;15.13;40.79
550;BME280;20066;48.764;9.176;2024-01-30T11:55:49;99552.91;;;13.66;43.57
550;BME280;20066;48.764;9.176;2024-01-30T11:58:17;99545.41;;;14.26;43.04
550;BME280;20066;48.764;9.176;2024-01-30T12:00:53;99535.22;;;14.13;42.54
550;BME280;20066;48.764;9.176;2024-01-30T12:03:22;99541.25;;;14.98;41.22
550;BME280;20066;48.764;9.176;2024-01-30T12:05:55;99532.59;;;14.23;42.87
550;BME280;20066;48.764;9.176;2024-01-30T12:08:25;99534.56;;;13.49;43.76
550;BME280;20066;48.764;9.176;2024-01-30T12:10:57;99531.81;;;14.23;43.15
550;BME280;20066;48.764;9.176;2024-01-30T12:13:28;99532.91;;;15.31;41.31
550;BME280;20066;48.764;9.176;2024-01-30T12:15:59;99526.41;;;14.23;42.46
550;BME280;20066;48.764;9.176;2024-01-30T12:18:27;99526.66;;;13.67;43.68
550;BME280;20066;48.764;9.176;2024-01-30T12:20:58;99522.66;;;14.38;42.65
550;BME280;20066;48.764;9.176;2024-01-30T12:23:29;99527.03;;;15.19;41.75
550;BME280;20066;48.764;9.176;2024-01-30T12:25:57;99520.22;;;15.53;40.93
550;BME280;20066;48.764;9.176;2024-01-30T12:28:25;99515.25;;;15.91;40.42
550;BME280;20066;48.764;9.176;2024-01-30T12:30:55;99521.09;;;16.28;39.33
550;BME280;20066;48.764;9.176;2024-01-30T12:33:26;99516.81;;;14.94;41.91
550;BME280;20066;48.764;9.176;2024-01-30T12:35:54;99513.50;;;15.26;41.03
550;BME280;20066;48.764;9.176;2024-01-30T12:38:30;99510.53;;;14.73;41.99
550;BME280;20066;48.764;9.176;2024-01-30T12:40:58;99506.34;;;14.27;42.76
550;BME280;20066;48.764;9.176;2024-01-30T12:43:27;99504.31;;;14.72;42.25
550;BME280;20066;48.764;9.176;2024-01-30T12:46:05;99508.88;;;14.57;42.83
550;BME280;20066;48.764;9.176;2024-01-30T12:48:33;99504.47;;;14.39;43.61
550;BME280;20066;48.764;9.176;2024-01-30T12:51:01;99506.03;;;14.40;42.70
550;BME280;20066;48.764;9.176;2024-01-30T12:53:31;99509.81;;;14.83;41.36
550;BME280;20066;48.764;9.176;2024-01-30T12:55:59;99508.84;;;14.54;41.68
550;BME280;20066;48.764;9.176;2024-01-30T12:58:27;99515.88;;;14.62;41.66
550;BME280;20066;48.764;9.176;2024-01-30T13:00:55;99511.88;;;14.45;42.15
550;BME280;20066;48.764;9.176;2024-01-30T13:03:29;99514.56;;;14.42;41.60
550;BME280;20066;48.764;9.176;2024-01-30T13:05:57;99514.09;;;14.29;42.34
550;BME280;20066;48.764;9.176;2024-01-30T13:08:25;99514.59;;;14.45;42.18
550;BME280;20066;48.764;9.176;2024-01-30T13:10:55;99518.66;;;14.76;42.24
550;BME280;20066;48.764;9.176;2024-01-30T13:13:23;99514.03;;;14.22;42.65
550;BME280;20066;48.764;9.176;2024-01-30T13:15:51;99516.53;;;14.45;42.28
550;BME280;20066;48.764;9.176;2024-01-30T13:18:19;99514.41;;;14.79;42.00
550;BME280;20066;48.764;9.176;2024-01-30T13:20:47;99510.75;;;15.15;41.13
550;BME280;20066;48.764;9.176;2024-01-30T13:23:15;99515.50;;;14.63;41.56
550;BME280;20066;48.764;9.176;2024-01-30T13:25:43;99512.53;;;14.83;41.80
550;BME280;20066;48.764;9.176;2024-01-30T13:28:12;99515.81;;;14.55;41.39
550;BME280;20066;48.764;9.176;2024-01-30T13:30:40;99512.13;;;14.84;40.87
550;BME280;20066;48.764;9.176;2024-01-30T13:33:08;99510.75;;;14.50;41.80
550;BME280;20066;48.764;9.176;2024-01-30T13:35:36;99506.00;;;14.94;40.87
550;BME280;20066;48.764;9.176;2024-01-30T13:38:04;99513.69;;;14.85;41.34
550;BME280;20066;48.764;9.176;2024-01-30T13:40:32;99509.78;;;15.87;39.59
550;BME280;20066;48.764;9.176;2024-01-30T13:43:00;99506.69;;;15.92;38.96